createdAt,value
2017-05-31T00:00:15.781Z,1012.1
2017-05-31T00:00:41.922Z,1012.12
2017-05-31T00:01:08.088Z,1012.11
2017-05-31T00:01:34.277Z,1012.11
2017-05-31T00:02:00.420Z,1012.08
2017-05-31T00:02:26.585Z,1012.13
2017-05-31T00:02:52.729Z,1012.11
2017-05-31T00:03:18.878Z,1012.12
2017-05-31T00:03:45.008Z,1012.17
2017-05-31T00:04:11.150Z,1012.16
2017-05-31T00:04:37.301Z,1012.17
2017-05-31T00:05:03.501Z,1012.13
2017-05-31T00:05:29.642Z,1012.14
2017-05-31T00:05:55.793Z,1012.14
2017-05-31T00:06:21.932Z,1012.15
2017-05-31T00:06:48.067Z,1012.15
2017-05-31T00:07:14.223Z,1012.13
2017-05-31T00:07:40.359Z,1012.19
2017-05-31T00:08:06.522Z,1012.15
2017-05-31T00:08:32.745Z,1012.21
2017-05-31T00:08:58.926Z,1012.19
2017-05-31T00:09:25.092Z,1012.16
2017-05-31T00:09:51.240Z,1012.18
2017-05-31T00:10:17.374Z,1012.23
2017-05-31T00:10:43.524Z,1012.16
2017-05-31T00:11:09.667Z,1012.18
2017-05-31T00:11:35.801Z,1012.18
2017-05-31T00:12:01.950Z,1012.2
2017-05-31T00:12:28.127Z,1012.22
2017-05-31T00:12:54.294Z,1012.19
2017-05-31T00:13:20.442Z,1012.22
2017-05-31T00:13:46.590Z,1012.22
2017-05-31T00:14:12.721Z,1012.24
2017-05-31T00:14:38.864Z,1012.21
2017-05-31T00:15:05.014Z,1012.23
2017-05-31T00:15:31.146Z,1012.23
2017-05-31T00:15:57.292Z,1012.18
2017-05-31T00:16:23.428Z,1012.22
2017-05-31T00:16:49.569Z,1012.22
2017-05-31T00:17:15.718Z,1012.19
2017-05-31T00:17:41.881Z,1012.2
2017-05-31T00:18:08.025Z,1012.17
2017-05-31T00:18:34.174Z,1012.16
2017-05-31T00:19:00.306Z,1012.23
2017-05-31T00:19:26.443Z,1012.22
2017-05-31T00:19:52.593Z,1012.2
2017-05-31T00:20:18.765Z,1012.19
2017-05-31T00:20:44.931Z,1012.21
2017-05-31T00:21:11.118Z,1012.21
2017-05-31T00:21:37.259Z,1012.21
2017-05-31T00:22:03.410Z,1012.22
2017-05-31T00:22:29.546Z,1012.22
2017-05-31T00:22:55.717Z,1012.24
2017-05-31T00:23:21.943Z,1012.24
2017-05-31T00:23:48.082Z,1012.22
2017-05-31T00:24:14.214Z,1012.26
2017-05-31T00:24:40.368Z,1012.2
2017-05-31T00:25:06.512Z,1012.24
2017-05-31T00:25:32.679Z,1012.26
2017-05-31T00:25:58.830Z,1012.26
2017-05-31T00:26:24.973Z,1012.26
2017-05-31T00:26:51.115Z,1012.18
2017-05-31T00:27:17.254Z,1012.25
2017-05-31T00:27:43.387Z,1012.3
2017-05-31T00:28:09.544Z,1012.27
2017-05-31T00:28:35.681Z,1012.3
2017-05-31T00:29:01.813Z,1012.25
2017-05-31T00:29:27.963Z,1012.28
2017-05-31T00:29:54.110Z,1012.29
2017-05-31T00:30:20.276Z,1012.32
2017-05-31T00:30:46.421Z,1012.34
2017-05-31T00:31:12.607Z,1012.3
2017-05-31T00:31:38.734Z,1012.31
2017-05-31T00:32:04.912Z,1012.3
2017-05-31T00:32:31.051Z,1012.34
2017-05-31T00:32:57.198Z,1012.34
2017-05-31T00:33:23.343Z,1012.3
2017-05-31T00:33:49.506Z,1012.35
2017-05-31T00:34:15.651Z,1012.35
2017-05-31T00:34:41.802Z,1012.35
2017-05-31T00:35:07.932Z,1012.36
2017-05-31T00:35:34.076Z,1012.34
2017-05-31T00:36:00.262Z,1012.35
2017-05-31T00:36:26.395Z,1012.37
2017-05-31T00:36:52.566Z,1012.36
2017-05-31T00:37:18.753Z,1012.39
2017-05-31T00:37:44.925Z,1012.37
2017-05-31T00:38:11.074Z,1012.36
2017-05-31T00:38:37.205Z,1012.36
2017-05-31T00:39:03.347Z,1012.37
2017-05-31T00:39:29.497Z,1012.36
2017-05-31T00:39:55.633Z,1012.37
2017-05-31T00:40:21.806Z,1012.4
2017-05-31T00:40:47.955Z,1012.4
2017-05-31T00:41:14.094Z,1012.38
2017-05-31T00:41:40.227Z,1012.39
2017-05-31T00:42:06.378Z,1012.38
2017-05-31T00:42:32.555Z,1012.4
2017-05-31T00:42:58.721Z,1012.42
2017-05-31T00:43:24.871Z,1012.4
2017-05-31T00:43:51.006Z,1012.39
2017-05-31T00:44:17.158Z,1012.42
2017-05-31T00:44:43.328Z,1012.38
2017-05-31T00:45:09.557Z,1012.39
2017-05-31T00:45:35.708Z,1012.4
2017-05-31T00:46:01.848Z,1012.39
2017-05-31T00:46:27.989Z,1012.4
2017-05-31T00:46:54.141Z,1012.41
2017-05-31T00:47:20.289Z,1012.4
2017-05-31T00:47:46.449Z,1012.43
2017-05-31T00:48:12.663Z,1012.4
2017-05-31T00:48:38.813Z,1012.4
2017-05-31T00:49:04.948Z,1012.4
2017-05-31T00:49:31.119Z,1012.42
2017-05-31T00:49:57.267Z,1012.41
2017-05-31T00:50:23.402Z,1012.41
2017-05-31T00:50:49.542Z,1012.4
2017-05-31T00:51:15.698Z,1012.44
2017-05-31T00:51:41.838Z,1012.42
2017-05-31T00:52:08.008Z,1012.42
2017-05-31T00:52:34.158Z,1012.39
2017-05-31T00:53:00.299Z,1012.4
2017-05-31T00:53:26.433Z,1012.43
2017-05-31T00:53:52.583Z,1012.45
2017-05-31T00:54:18.725Z,1012.42
2017-05-31T00:54:44.865Z,1012.42
2017-05-31T00:55:11.003Z,1012.44
2017-05-31T00:55:37.169Z,1012.43
2017-05-31T00:56:03.322Z,1012.41
2017-05-31T00:56:29.463Z,1012.42
2017-05-31T00:56:55.598Z,1012.42
2017-05-31T00:57:21.805Z,1012.44
2017-05-31T00:57:47.902Z,1012.41
2017-05-31T00:58:14.069Z,1012.43
2017-05-31T00:58:40.217Z,1012.38
2017-05-31T00:59:06.367Z,1012.43
2017-05-31T00:59:32.561Z,1012.39
2017-05-31T00:59:58.703Z,1012.43
2017-05-31T01:00:24.842Z,1012.44
2017-05-31T01:00:51.021Z,1012.43
2017-05-31T01:01:17.200Z,1012.42
2017-05-31T01:01:43.330Z,1012.44
2017-05-31T01:02:09.479Z,1012.45
2017-05-31T01:02:35.626Z,1012.45
2017-05-31T01:03:01.760Z,1012.47
2017-05-31T01:03:27.936Z,1012.4
2017-05-31T01:03:54.086Z,1012.41
2017-05-31T01:04:20.223Z,1012.44
2017-05-31T01:04:46.363Z,1012.44
2017-05-31T01:05:12.522Z,1012.45
2017-05-31T01:05:38.661Z,1012.43
2017-05-31T01:06:04.808Z,1012.43
2017-05-31T01:06:30.937Z,1012.44
2017-05-31T01:06:57.081Z,1012.47
2017-05-31T01:07:23.231Z,1012.48
2017-05-31T01:07:49.366Z,1012.48
2017-05-31T01:08:15.503Z,1012.46
2017-05-31T01:08:41.691Z,1012.45
2017-05-31T01:09:07.864Z,1012.43
2017-05-31T01:09:34.031Z,1012.45
2017-05-31T01:10:00.185Z,1012.43
2017-05-31T01:10:26.326Z,1012.46
2017-05-31T01:10:52.459Z,1012.43
2017-05-31T01:11:18.604Z,1012.44
2017-05-31T01:11:44.748Z,1012.46
2017-05-31T01:12:10.913Z,1012.44
2017-05-31T01:12:37.088Z,1012.48
2017-05-31T01:13:03.275Z,1012.52
2017-05-31T01:13:29.439Z,1012.48
2017-05-31T01:13:55.581Z,1012.49
2017-05-31T01:14:21.733Z,1012.49
2017-05-31T01:14:47.902Z,1012.52
2017-05-31T01:15:14.077Z,1012.53
2017-05-31T01:15:40.227Z,1012.56
2017-05-31T01:16:06.398Z,1012.52
2017-05-31T01:16:32.530Z,1012.52
2017-05-31T01:16:58.677Z,1012.55
2017-05-31T01:17:24.822Z,1012.53
2017-05-31T01:17:50.972Z,1012.56
2017-05-31T01:18:17.103Z,1012.54
2017-05-31T01:18:43.242Z,1012.53
2017-05-31T01:19:09.394Z,1012.55
2017-05-31T01:19:35.582Z,1012.51
2017-05-31T01:20:01.716Z,1012.54
2017-05-31T01:20:27.904Z,1012.51
2017-05-31T01:20:54.078Z,1012.56
2017-05-31T01:21:20.246Z,1012.54
2017-05-31T01:21:46.395Z,1012.55
2017-05-31T01:22:12.573Z,1012.52
2017-05-31T01:22:38.750Z,1012.51
2017-05-31T01:23:04.888Z,1012.52
2017-05-31T01:23:31.051Z,1012.53
2017-05-31T01:23:57.204Z,1012.51
2017-05-31T01:24:23.380Z,1012.53
2017-05-31T01:24:49.509Z,1012.54
2017-05-31T01:25:15.692Z,1012.54
2017-05-31T01:25:41.838Z,1012.55
2017-05-31T01:26:07.970Z,1012.54
2017-05-31T01:26:34.115Z,1012.51
2017-05-31T01:27:00.301Z,1012.52
2017-05-31T01:27:26.430Z,1012.52
2017-05-31T01:27:52.572Z,1012.53
2017-05-31T01:28:18.709Z,1012.53
2017-05-31T01:28:44.856Z,1012.53
2017-05-31T01:29:10.999Z,1012.56
2017-05-31T01:29:37.132Z,1012.54
2017-05-31T01:30:03.275Z,1012.55
2017-05-31T01:30:29.424Z,1012.56
2017-05-31T01:30:55.585Z,1012.61
2017-05-31T01:31:21.728Z,1012.59
2017-05-31T01:31:47.878Z,1012.56
2017-05-31T01:32:14.044Z,1012.6
2017-05-31T01:32:40.218Z,1012.63
2017-05-31T01:33:06.366Z,1012.62
2017-05-31T01:33:32.508Z,1012.61
2017-05-31T01:33:58.738Z,1012.63
2017-05-31T01:34:24.836Z,1012.62
2017-05-31T01:34:50.973Z,1012.64
2017-05-31T01:35:17.132Z,1012.59
2017-05-31T01:35:43.316Z,1012.62
2017-05-31T01:36:09.459Z,1012.57
2017-05-31T01:36:35.623Z,1012.62
2017-05-31T01:37:01.770Z,1012.6
2017-05-31T01:37:27.957Z,1012.61
2017-05-31T01:37:54.088Z,1012.59
2017-05-31T01:38:20.228Z,1012.62
2017-05-31T01:38:46.415Z,1012.6
2017-05-31T01:39:12.547Z,1012.59
2017-05-31T01:39:38.745Z,1012.63
2017-05-31T01:40:04.879Z,1012.65
2017-05-31T01:40:31.023Z,1012.63
2017-05-31T01:40:57.172Z,1012.64
2017-05-31T01:41:23.305Z,1012.61
2017-05-31T01:41:49.482Z,1012.63
2017-05-31T01:42:15.635Z,1012.61
2017-05-31T01:42:41.767Z,1012.64
2017-05-31T01:43:07.907Z,1012.66
2017-05-31T01:43:34.060Z,1012.63
2017-05-31T01:44:00.198Z,1012.64
2017-05-31T01:44:26.367Z,1012.64
2017-05-31T01:44:52.514Z,1012.67
2017-05-31T01:45:18.653Z,1012.65
2017-05-31T01:45:44.803Z,1012.65
2017-05-31T01:46:10.935Z,1012.68
2017-05-31T01:46:37.076Z,1012.66
2017-05-31T01:47:03.225Z,1012.7
2017-05-31T01:47:29.397Z,1012.71
2017-05-31T01:47:55.618Z,1012.68
2017-05-31T01:48:21.716Z,1012.69
2017-05-31T01:48:47.895Z,1012.68
2017-05-31T01:49:14.026Z,1012.69
2017-05-31T01:49:40.245Z,1012.72
2017-05-31T01:50:06.424Z,1012.73
2017-05-31T01:50:32.603Z,1012.69
2017-05-31T01:50:58.740Z,1012.75
2017-05-31T01:51:24.904Z,1012.75
2017-05-31T01:51:51.055Z,1012.71
2017-05-31T01:52:17.197Z,1012.71
2017-05-31T01:52:43.364Z,1012.79
2017-05-31T01:53:09.512Z,1012.76
2017-05-31T01:53:35.657Z,1012.73
2017-05-31T01:54:01.789Z,1012.75
2017-05-31T01:54:27.935Z,1012.75
2017-05-31T01:54:54.085Z,1012.75
2017-05-31T01:55:20.214Z,1012.73
2017-05-31T01:55:46.354Z,1012.75
2017-05-31T01:56:12.492Z,1012.75
2017-05-31T01:56:38.637Z,1012.78
2017-05-31T01:57:04.780Z,1012.77
2017-05-31T01:57:30.945Z,1012.74
2017-05-31T01:57:57.092Z,1012.76
2017-05-31T01:58:23.245Z,1012.74
2017-05-31T01:58:49.376Z,1012.77
2017-05-31T01:59:15.518Z,1012.76
2017-05-31T01:59:41.705Z,1012.77
2017-05-31T02:00:07.837Z,1012.75
2017-05-31T02:00:33.975Z,1012.77
2017-05-31T02:01:00.126Z,1012.74
2017-05-31T02:01:26.264Z,1012.78
2017-05-31T02:01:52.413Z,1012.8
2017-05-31T02:02:18.545Z,1012.76
2017-05-31T02:02:44.724Z,1012.82
2017-05-31T02:03:10.908Z,1012.74
2017-05-31T02:03:37.077Z,1012.82
2017-05-31T02:04:03.248Z,1012.79
2017-05-31T02:04:29.398Z,1012.85
2017-05-31T02:04:55.535Z,1012.82
2017-05-31T02:05:21.666Z,1012.78
2017-05-31T02:05:47.818Z,1012.76
2017-05-31T02:06:13.955Z,1012.8
2017-05-31T02:06:40.086Z,1012.81
2017-05-31T02:07:06.238Z,1012.81
2017-05-31T02:07:32.441Z,1012.81
2017-05-31T02:07:58.591Z,1012.81
2017-05-31T02:08:24.731Z,1012.8
2017-05-31T02:08:50.865Z,1012.77
2017-05-31T02:09:17.057Z,1012.79
2017-05-31T02:09:43.196Z,1012.75
2017-05-31T02:10:09.327Z,1012.73
2017-05-31T02:10:35.511Z,1012.8
2017-05-31T02:11:01.656Z,1012.76
2017-05-31T02:11:27.787Z,1012.78
2017-05-31T02:11:53.930Z,1012.78
2017-05-31T02:12:20.079Z,1012.77
2017-05-31T02:12:46.214Z,1012.78
2017-05-31T02:13:12.388Z,1012.74
2017-05-31T02:13:38.523Z,1012.76
2017-05-31T02:14:04.703Z,1012.78
2017-05-31T02:14:30.883Z,1012.75
2017-05-31T02:14:57.013Z,1012.77
2017-05-31T02:15:23.159Z,1012.77
2017-05-31T02:15:49.306Z,1012.74
2017-05-31T02:16:15.438Z,1012.73
2017-05-31T02:16:41.618Z,1012.71
2017-05-31T02:17:07.768Z,1012.72
2017-05-31T02:17:33.903Z,1012.7
2017-05-31T02:18:00.044Z,1012.7
2017-05-31T02:18:26.227Z,1012.71
2017-05-31T02:18:52.365Z,1012.73
2017-05-31T02:19:18.496Z,1012.73
2017-05-31T02:19:44.652Z,1012.72
2017-05-31T02:20:10.825Z,1012.73
2017-05-31T02:20:36.991Z,1012.75
2017-05-31T02:21:03.140Z,1012.75
2017-05-31T02:21:29.283Z,1012.73
2017-05-31T02:21:55.415Z,1012.72
2017-05-31T02:22:21.591Z,1012.72
2017-05-31T02:22:47.777Z,1012.71
2017-05-31T02:23:18.293Z,1012.74
2017-05-31T02:23:41.039Z,1012.76
2017-05-31T02:24:07.179Z,1012.71
2017-05-31T02:24:33.398Z,1012.76
2017-05-31T02:24:59.539Z,1012.73
2017-05-31T02:25:25.738Z,1012.68
2017-05-31T02:25:51.884Z,1012.77
2017-05-31T02:26:18.034Z,1012.75
2017-05-31T02:26:44.200Z,1012.73
2017-05-31T02:27:10.345Z,1012.73
2017-05-31T02:27:36.529Z,1012.76
2017-05-31T02:28:02.664Z,1012.73
2017-05-31T02:28:28.839Z,1012.75
2017-05-31T02:28:55.026Z,1012.73
2017-05-31T02:29:21.162Z,1012.78
2017-05-31T02:29:47.347Z,1012.75
2017-05-31T02:30:13.828Z,1012.76
2017-05-31T02:30:39.973Z,1012.77
2017-05-31T02:31:06.158Z,1012.72
2017-05-31T02:31:32.325Z,1012.75
2017-05-31T02:31:58.464Z,1012.74
2017-05-31T02:32:24.653Z,1012.75
2017-05-31T02:32:50.855Z,1012.76
2017-05-31T02:33:17.001Z,1012.74
2017-05-31T02:33:43.179Z,1012.76
2017-05-31T02:34:09.356Z,1012.78
2017-05-31T02:34:35.524Z,1012.76
2017-05-31T02:35:01.708Z,1012.75
2017-05-31T02:35:27.845Z,1012.76
2017-05-31T02:35:53.996Z,1012.78
2017-05-31T02:36:20.133Z,1012.79
2017-05-31T02:36:46.265Z,1012.77
2017-05-31T02:37:12.454Z,1012.83
2017-05-31T02:37:38.592Z,1012.79
2017-05-31T02:38:04.726Z,1012.8
2017-05-31T02:38:30.908Z,1012.82
2017-05-31T02:38:57.052Z,1012.82
2017-05-31T02:39:23.184Z,1012.82
2017-05-31T02:39:49.363Z,1012.82
2017-05-31T02:40:15.548Z,1012.79
2017-05-31T02:40:41.686Z,1012.81
2017-05-31T02:41:07.861Z,1012.78
2017-05-31T02:41:33.993Z,1012.82
2017-05-31T02:42:00.143Z,1012.82
2017-05-31T02:42:26.322Z,1012.8
2017-05-31T02:42:52.488Z,1012.82
2017-05-31T02:43:18.706Z,1012.8
2017-05-31T02:43:44.888Z,1012.79
2017-05-31T02:44:11.019Z,1012.81
2017-05-31T02:44:37.159Z,1012.85
2017-05-31T02:45:03.308Z,1012.79
2017-05-31T02:45:29.442Z,1012.78
2017-05-31T02:45:55.584Z,1012.79
2017-05-31T02:46:21.724Z,1012.79
2017-05-31T02:46:47.935Z,1012.8
2017-05-31T02:47:14.085Z,1012.76
2017-05-31T02:47:40.247Z,1012.79
2017-05-31T02:48:06.429Z,1012.81
2017-05-31T02:48:32.615Z,1012.8
2017-05-31T02:48:58.779Z,1012.78
2017-05-31T02:49:24.918Z,1012.78
2017-05-31T02:49:51.100Z,1012.79
2017-05-31T02:50:17.237Z,1012.82
2017-05-31T02:50:43.407Z,1012.79
2017-05-31T02:51:09.558Z,1012.75
2017-05-31T02:51:35.736Z,1012.82
2017-05-31T02:52:01.915Z,1012.78
2017-05-31T02:52:28.049Z,1012.78
2017-05-31T02:52:54.188Z,1012.79
2017-05-31T02:53:20.338Z,1012.74
2017-05-31T02:53:46.476Z,1012.77
2017-05-31T02:54:12.610Z,1012.75
2017-05-31T02:54:38.760Z,1012.76
2017-05-31T02:55:04.936Z,1012.78
2017-05-31T02:55:31.106Z,1012.75
2017-05-31T02:55:57.255Z,1012.77
2017-05-31T02:56:23.401Z,1012.78
2017-05-31T02:56:49.533Z,1012.82
2017-05-31T02:57:15.678Z,1012.8
2017-05-31T02:57:41.812Z,1012.75
2017-05-31T02:58:07.964Z,1012.8
2017-05-31T02:58:34.105Z,1012.74
2017-05-31T02:59:00.262Z,1012.83
2017-05-31T02:59:26.413Z,1012.82
2017-05-31T02:59:52.558Z,1012.81
2017-05-31T03:00:18.722Z,1012.74
2017-05-31T03:00:44.869Z,1012.76
2017-05-31T03:01:11.018Z,1012.81
2017-05-31T03:01:37.183Z,1012.81
2017-05-31T03:02:03.391Z,1012.8
2017-05-31T03:02:29.578Z,1012.78
2017-05-31T03:02:55.713Z,1012.76
2017-05-31T03:03:21.853Z,1012.75
2017-05-31T03:03:48.038Z,1012.78
2017-05-31T03:04:14.212Z,1012.77
2017-05-31T03:04:40.345Z,1012.84
2017-05-31T03:05:06.496Z,1012.79
2017-05-31T03:05:32.671Z,1012.8
2017-05-31T03:05:58.806Z,1012.78
2017-05-31T03:06:24.955Z,1012.8
2017-05-31T03:06:51.099Z,1012.79
2017-05-31T03:07:17.231Z,1012.8
2017-05-31T03:07:43.375Z,1012.78
2017-05-31T03:08:09.526Z,1012.84
2017-05-31T03:08:35.696Z,1012.85
2017-05-31T03:09:01.839Z,1012.85
2017-05-31T03:09:27.973Z,1012.84
2017-05-31T03:09:54.125Z,1012.85
2017-05-31T03:10:20.268Z,1012.83
2017-05-31T03:10:46.404Z,1012.87
2017-05-31T03:11:12.551Z,1012.83
2017-05-31T03:11:38.737Z,1012.85
2017-05-31T03:12:04.868Z,1012.85
2017-05-31T03:12:31.008Z,1012.84
2017-05-31T03:12:57.192Z,1012.89
2017-05-31T03:13:23.333Z,1012.85
2017-05-31T03:13:49.467Z,1012.87
2017-05-31T03:14:15.608Z,1012.88
2017-05-31T03:14:41.789Z,1012.9
2017-05-31T03:15:07.939Z,1012.88
2017-05-31T03:15:34.106Z,1012.89
2017-05-31T03:16:00.248Z,1012.91
2017-05-31T03:16:26.399Z,1012.88
2017-05-31T03:16:52.533Z,1012.92
2017-05-31T03:17:18.670Z,1012.91
2017-05-31T03:17:44.825Z,1012.9
2017-05-31T03:18:10.963Z,1012.91
2017-05-31T03:18:37.128Z,1012.91
2017-05-31T03:19:03.316Z,1012.92
2017-05-31T03:19:29.492Z,1012.94
2017-05-31T03:19:55.635Z,1012.93
2017-05-31T03:20:21.771Z,1012.91
2017-05-31T03:20:47.910Z,1012.89
2017-05-31T03:21:14.060Z,1012.89
2017-05-31T03:21:40.195Z,1012.91
2017-05-31T03:22:06.326Z,1012.92
2017-05-31T03:22:32.553Z,1012.88
2017-05-31T03:22:58.694Z,1012.91
2017-05-31T03:23:24.827Z,1012.88
2017-05-31T03:23:50.975Z,1012.92
2017-05-31T03:24:17.154Z,1012.87
2017-05-31T03:24:43.286Z,1012.89
2017-05-31T03:25:09.465Z,1012.93
2017-05-31T03:25:35.598Z,1012.93
2017-05-31T03:26:01.751Z,1012.9
2017-05-31T03:26:27.927Z,1012.92
2017-05-31T03:26:54.093Z,1012.93
2017-05-31T03:27:20.243Z,1012.92
2017-05-31T03:27:46.385Z,1012.92
2017-05-31T03:28:12.551Z,1012.86
2017-05-31T03:28:38.695Z,1012.92
2017-05-31T03:29:04.918Z,1012.92
2017-05-31T03:29:31.084Z,1012.91
2017-05-31T03:29:57.230Z,1012.89
2017-05-31T03:30:23.380Z,1012.95
2017-05-31T03:30:49.547Z,1012.91
2017-05-31T03:31:15.729Z,1012.93
2017-05-31T03:31:41.860Z,1012.92
2017-05-31T03:32:08.006Z,1012.94
2017-05-31T03:32:34.228Z,1012.87
2017-05-31T03:33:00.361Z,1012.9
2017-05-31T03:33:26.504Z,1012.93
2017-05-31T03:33:52.727Z,1012.89
2017-05-31T03:34:18.898Z,1012.91
2017-05-31T03:34:45.041Z,1012.93
2017-05-31T03:35:11.195Z,1012.88
2017-05-31T03:35:37.334Z,1012.85
2017-05-31T03:36:03.465Z,1012.89
2017-05-31T03:36:29.610Z,1012.86
2017-05-31T03:36:55.752Z,1012.87
2017-05-31T03:37:21.977Z,1012.84
2017-05-31T03:37:48.110Z,1012.89
2017-05-31T03:38:14.250Z,1012.91
2017-05-31T03:38:40.401Z,1012.88
2017-05-31T03:39:06.537Z,1012.87
2017-05-31T03:39:32.689Z,1012.87
2017-05-31T03:39:58.825Z,1012.91
2017-05-31T03:40:25.003Z,1012.97
2017-05-31T03:40:51.136Z,1012.92
2017-05-31T03:41:17.323Z,1012.95
2017-05-31T03:41:43.466Z,1012.93
2017-05-31T03:42:09.609Z,1012.94
2017-05-31T03:42:35.745Z,1012.93
2017-05-31T03:43:01.912Z,1012.93
2017-05-31T03:43:28.064Z,1012.94
2017-05-31T03:43:54.205Z,1012.98
2017-05-31T03:44:20.340Z,1012.95
2017-05-31T03:44:46.489Z,1012.95
2017-05-31T03:45:12.668Z,1012.94
2017-05-31T03:45:38.833Z,1012.95
2017-05-31T03:46:04.982Z,1012.97
2017-05-31T03:46:31.132Z,1012.98
2017-05-31T03:46:57.261Z,1012.93
2017-05-31T03:47:23.407Z,1012.94
2017-05-31T03:47:49.551Z,1012.94
2017-05-31T03:48:15.686Z,1012.95
2017-05-31T03:48:41.892Z,1012.94
2017-05-31T03:49:08.114Z,1012.95
2017-05-31T03:49:34.252Z,1012.99
2017-05-31T03:50:00.386Z,1012.97
2017-05-31T03:50:26.575Z,1012.98
2017-05-31T03:50:52.716Z,1013.01
2017-05-31T03:51:18.882Z,1013.04
2017-05-31T03:51:45.031Z,1013.03
2017-05-31T03:52:11.177Z,1013.03
2017-05-31T03:52:37.314Z,1013.05
2017-05-31T03:53:03.459Z,1013.01
2017-05-31T03:53:29.593Z,1013.05
2017-05-31T03:53:55.744Z,1013.06
2017-05-31T03:54:21.884Z,1013.09
2017-05-31T03:54:48.052Z,1013.06
2017-05-31T03:55:14.199Z,1013.09
2017-05-31T03:55:40.416Z,1013.11
2017-05-31T03:56:06.549Z,1013.13
2017-05-31T03:56:32.731Z,1013.11
2017-05-31T03:56:58.883Z,1013.13
2017-05-31T03:57:25.048Z,1013.12
2017-05-31T03:57:51.223Z,1013.15
2017-05-31T03:58:17.371Z,1013.16
2017-05-31T03:58:43.537Z,1013.16
2017-05-31T03:59:09.694Z,1013.18
2017-05-31T03:59:35.824Z,1013.19
2017-05-31T04:00:02.009Z,1013.19
2017-05-31T04:00:28.189Z,1013.23
2017-05-31T04:00:54.321Z,1013.21
2017-05-31T04:01:20.501Z,1013.21
2017-05-31T04:01:46.652Z,1013.26
2017-05-31T04:02:12.784Z,1013.24
2017-05-31T04:02:38.955Z,1013.24
2017-05-31T04:03:05.103Z,1013.28
2017-05-31T04:03:31.278Z,1013.26
2017-05-31T04:03:57.415Z,1013.28
2017-05-31T04:04:23.563Z,1013.29
2017-05-31T04:04:49.706Z,1013.27
2017-05-31T04:05:15.857Z,1013.27
2017-05-31T04:05:41.992Z,1013.3
2017-05-31T04:06:08.131Z,1013.29
2017-05-31T04:06:34.280Z,1013.29
2017-05-31T04:07:00.451Z,1013.32
2017-05-31T04:07:26.619Z,1013.27
2017-05-31T04:07:52.774Z,1013.32
2017-05-31T04:08:18.916Z,1013.32
2017-05-31T04:08:45.050Z,1013.33
2017-05-31T04:09:11.198Z,1013.34
2017-05-31T04:09:37.379Z,1013.34
2017-05-31T04:10:03.558Z,1013.33
2017-05-31T04:10:29.695Z,1013.35
2017-05-31T04:10:55.827Z,1013.33
2017-05-31T04:11:22.011Z,1013.33
2017-05-31T04:11:48.186Z,1013.34
2017-05-31T04:12:14.319Z,1013.31
2017-05-31T04:12:40.501Z,1013.36
2017-05-31T04:13:06.644Z,1013.36
2017-05-31T04:13:32.843Z,1013.31
2017-05-31T04:13:59.054Z,1013.36
2017-05-31T04:14:25.242Z,1013.31
2017-05-31T04:14:51.370Z,1013.32
2017-05-31T04:15:17.545Z,1013.36
2017-05-31T04:15:43.714Z,1013.38
2017-05-31T04:16:09.862Z,1013.36
2017-05-31T04:16:36.052Z,1013.34
2017-05-31T04:17:02.186Z,1013.38
2017-05-31T04:17:28.332Z,1013.37
2017-05-31T04:17:54.516Z,1013.35
2017-05-31T04:18:20.649Z,1013.4
2017-05-31T04:18:46.791Z,1013.39
2017-05-31T04:19:12.976Z,1013.38
2017-05-31T04:19:39.110Z,1013.43
2017-05-31T04:20:05.252Z,1013.43
2017-05-31T04:20:31.401Z,1013.39
2017-05-31T04:20:57.643Z,1013.39
2017-05-31T04:21:23.793Z,1013.42
2017-05-31T04:21:49.957Z,1013.42
2017-05-31T04:22:16.170Z,1013.44
2017-05-31T04:22:42.321Z,1013.42
2017-05-31T04:23:08.455Z,1013.46
2017-05-31T04:23:34.629Z,1013.41
2017-05-31T04:24:00.815Z,1013.42
2017-05-31T04:24:26.951Z,1013.45
2017-05-31T04:24:53.118Z,1013.47
2017-05-31T04:25:19.267Z,1013.47
2017-05-31T04:25:45.409Z,1013.47
2017-05-31T04:26:11.580Z,1013.47
2017-05-31T04:26:37.762Z,1013.46
2017-05-31T04:27:03.897Z,1013.48
2017-05-31T04:27:30.047Z,1013.49
2017-05-31T04:27:56.186Z,1013.54
2017-05-31T04:28:22.320Z,1013.53
2017-05-31T04:28:48.472Z,1013.49
2017-05-31T04:29:14.650Z,1013.52
2017-05-31T04:29:40.816Z,1013.49
2017-05-31T04:30:06.967Z,1013.53
2017-05-31T04:30:33.113Z,1013.52
2017-05-31T04:30:59.281Z,1013.59
2017-05-31T04:31:25.427Z,1013.59
2017-05-31T04:31:51.612Z,1013.56
2017-05-31T04:32:17.743Z,1013.57
2017-05-31T04:32:43.885Z,1013.52
2017-05-31T04:33:10.036Z,1013.58
2017-05-31T04:33:36.171Z,1013.58
2017-05-31T04:34:02.378Z,1013.58
2017-05-31T04:34:28.527Z,1013.56
2017-05-31T04:34:54.663Z,1013.56
2017-05-31T04:35:20.798Z,1013.58
2017-05-31T04:35:46.950Z,1013.57
2017-05-31T04:36:13.092Z,1013.59
2017-05-31T04:36:39.258Z,1013.59
2017-05-31T04:37:05.409Z,1013.57
2017-05-31T04:37:31.590Z,1013.6
2017-05-31T04:37:57.734Z,1013.57
2017-05-31T04:38:23.871Z,1013.63
2017-05-31T04:38:50.003Z,1013.62
2017-05-31T04:39:16.156Z,1013.62
2017-05-31T04:39:42.331Z,1013.6
2017-05-31T04:40:08.498Z,1013.64
2017-05-31T04:40:34.680Z,1013.61
2017-05-31T04:41:00.826Z,1013.63
2017-05-31T04:41:26.960Z,1013.63
2017-05-31T04:41:53.104Z,1013.63
2017-05-31T04:42:19.255Z,1013.69
2017-05-31T04:42:45.387Z,1013.71
2017-05-31T04:43:11.530Z,1013.73
2017-05-31T04:43:37.666Z,1013.74
2017-05-31T04:44:03.814Z,1013.69
2017-05-31T04:44:29.957Z,1013.72
2017-05-31T04:44:56.122Z,1013.74
2017-05-31T04:45:22.268Z,1013.79
2017-05-31T04:45:48.416Z,1013.8
2017-05-31T04:46:14.548Z,1013.73
2017-05-31T04:46:40.694Z,1013.75
2017-05-31T04:47:06.844Z,1013.74
2017-05-31T04:47:33.014Z,1013.73
2017-05-31T04:47:59.156Z,1013.79
2017-05-31T04:48:25.308Z,1013.75
2017-05-31T04:48:51.445Z,1013.79
2017-05-31T04:49:17.594Z,1013.75
2017-05-31T04:49:43.724Z,1013.74
2017-05-31T04:50:09.866Z,1013.7
2017-05-31T04:50:36.015Z,1013.75
2017-05-31T04:51:02.151Z,1013.78
2017-05-31T04:51:28.292Z,1013.77
2017-05-31T04:51:54.443Z,1013.79
2017-05-31T04:52:20.581Z,1013.82
2017-05-31T04:52:46.713Z,1013.83
2017-05-31T04:53:12.901Z,1013.85
2017-05-31T04:53:39.070Z,1013.83
2017-05-31T04:54:05.205Z,1013.83
2017-05-31T04:54:31.356Z,1013.83
2017-05-31T04:54:57.526Z,1013.85
2017-05-31T04:55:23.676Z,1013.83
2017-05-31T04:55:49.814Z,1013.84
2017-05-31T04:56:15.983Z,1013.8
2017-05-31T04:56:42.136Z,1013.81
2017-05-31T04:57:08.315Z,1013.84
2017-05-31T04:57:34.449Z,1013.82
2017-05-31T04:58:00.634Z,1013.79
2017-05-31T04:58:26.778Z,1013.79
2017-05-31T04:58:52.912Z,1013.81
2017-05-31T04:59:19.057Z,1013.81
2017-05-31T04:59:45.206Z,1013.78
2017-05-31T05:00:11.344Z,1013.73
2017-05-31T05:00:37.529Z,1013.73
2017-05-31T05:01:03.695Z,1013.71
2017-05-31T05:01:29.843Z,1013.73
2017-05-31T05:01:56.340Z,1013.74
2017-05-31T05:02:22.538Z,1013.69
2017-05-31T05:02:48.686Z,1013.67
2017-05-31T05:03:14.836Z,1013.69
2017-05-31T05:03:40.965Z,1013.66
2017-05-31T05:04:07.174Z,1013.66
2017-05-31T05:04:33.323Z,1013.63
2017-05-31T05:04:59.457Z,1013.68
2017-05-31T05:05:25.598Z,1013.65
2017-05-31T05:05:51.740Z,1013.65
2017-05-31T05:06:17.917Z,1013.72
2017-05-31T05:06:44.036Z,1013.7
2017-05-31T05:07:10.169Z,1013.74
2017-05-31T05:07:36.315Z,1013.72
2017-05-31T05:08:02.499Z,1013.78
2017-05-31T05:08:28.636Z,1013.83
2017-05-31T05:08:54.776Z,1013.82
2017-05-31T05:09:20.930Z,1013.81
2017-05-31T05:09:47.067Z,1013.81
2017-05-31T05:10:13.200Z,1013.86
2017-05-31T05:10:39.352Z,1013.79
2017-05-31T05:11:05.497Z,1013.82
2017-05-31T05:11:31.643Z,1013.82
2017-05-31T05:11:57.811Z,1013.78
2017-05-31T05:12:23.954Z,1013.8
2017-05-31T05:12:50.103Z,1013.78
2017-05-31T05:13:16.243Z,1013.76
2017-05-31T05:13:42.379Z,1013.73
2017-05-31T05:14:08.533Z,1013.71
2017-05-31T05:14:34.713Z,1013.73
2017-05-31T05:15:00.879Z,1013.72
2017-05-31T05:15:27.040Z,1013.73
2017-05-31T05:15:53.217Z,1013.73
2017-05-31T05:16:19.417Z,1013.79
2017-05-31T05:16:45.599Z,1013.73
2017-05-31T05:17:11.750Z,1013.7